sensor_id;sensor_type;location;lat;lon;timestamp;pressure;altitude;pressure_sealevel;temperature;humidity
6345;BME280;3205;42.666;23.264;2023-04-30T00:01:11;94072.28;;;9.27;100.00
6345;BME280;3205;42.666;23.264;2023-04-30T00:03:38;94061.41;;;9.16;100.00
6345;BME280;3205;42.666;23.264;2023-04-30T00:06:04;94061.81;;;9.06;100.00
6345;BME280;3205;42.666;23.264;2023-04-30T00:08:30;94062.28;;;9.08;100.00
6345;BME280;3205;42.666;23.264;2023-04-30T00:10:56;94069.09;;;9.09;100.00
6345;BME280;3205;42.666;23.264;2023-04-30T00:13:22;94066.88;;;8.99;100.00
6345;BME280;3205;42.666;23.264;2023-04-30T00:15:48;94065.69;;;8.97;100.00
6345;BME280;3205;42.666;23.264;2023-04-30T00:18:15;94058.97;;;8.87;100.00
6345;BME280;3205;42.666;23.264;2023-04-30T00:20:42;94063.03;;;8.85;100.00
6345;BME280;3205;42.666;23.264;2023-04-30T00:23:08;94063.81;;;8.85;100.00
6345;BME280;3205;42.666;23.264;2023-04-30T00:25:34;94064.13;;;8.84;100.00
6345;BME280;3205;42.666;23.264;2023-04-30T00:28:00;94063.69;;;8.82;100.00
6345;BME280;3205;42.666;23.264;2023-04-30T00:30:26;94059.44;;;8.78;100.00
6345;BME280;3205;42.666;23.264;2023-04-30T00:32:53;94058.97;;;8.76;100.00
6345;BME280;3205;42.666;23.264;2023-04-30T00:35:19;94069.97;;;8.78;100.00
6345;BME280;3205;42.666;23.264;2023-04-30T00:37:46;94063.81;;;8.85;100.00
6345;BME280;3205;42.666;23.264;2023-04-30T00:40:12;94064.81;;;8.81;100.00
6345;BME280;3205;42.666;23.264;2023-04-30T00:42:38;94067.22;;;8.86;100.00
6345;BME280;3205;42.666;23.264;2023-04-30T00:45:05;94061.50;;;8.84;100.00
6345;BME280;3205;42.666;23.264;2023-04-30T00:47:32;94059.53;;;8.81;100.00
6345;BME280;3205;42.666;23.264;2023-04-30T00:49:58;94054.81;;;8.75;100.00
6345;BME280;3205;42.666;23.264;2023-04-30T00:52:24;94056.97;;;8.73;100.00
6345;BME280;3205;42.666;23.264;2023-04-30T00:54:52;94056.34;;;8.76;100.00
6345;BME280;3205;42.666;23.264;2023-04-30T00:57:19;94063.56;;;8.79;100.00
6345;BME280;3205;42.666;23.264;2023-04-30T00:59:45;94064.94;;;8.85;100.00
6345;BME280;3205;42.666;23.264;2023-04-30T01:02:12;94063.38;;;8.84;100.00
6345;BME280;3205;42.666;23.264;2023-04-30T01:04:38;94053.25;;;8.74;100.00
6345;BME280;3205;42.666;23.264;2023-04-30T01:07:04;94054.56;;;8.80;100.00
6345;BME280;3205;42.666;23.264;2023-04-30T01:09:31;94055.91;;;8.74;100.00
6345;BME280;3205;42.666;23.264;2023-04-30T01:12:03;94053.59;;;8.72;100.00
6345;BME280;3205;42.666;23.264;2023-04-30T01:14:40;94051.19;;;8.67;100.00
6345;BME280;3205;42.666;23.264;2023-04-30T01:17:15;94053.13;;;8.58;100.00
6345;BME280;3205;42.666;23.264;2023-04-30T01:19:44;94055.00;;;8.58;100.00
6345;BME280;3205;42.666;23.264;2023-04-30T01:22:30;94062.69;;;8.63;100.00
6345;BME280;3205;42.666;23.264;2023-04-30T01:28:07;94058.53;;;8.62;100.00
6345;BME280;3205;42.666;23.264;2023-04-30T01:30:35;94049.94;;;8.53;100.00
6345;BME280;3205;42.666;23.264;2023-04-30T01:33:02;94052.03;;;8.47;100.00
6345;BME280;3205;42.666;23.264;2023-04-30T01:38:34;94061.09;;;8.38;100.00
6345;BME280;3205;42.666;23.264;2023-04-30T01:41:08;94063.19;;;8.32;100.00
6345;BME280;3205;42.666;23.264;2023-04-30T01:43:41;94057.91;;;8.32;100.00
6345;BME280;3205;42.666;23.264;2023-04-30T01:46:16;94057.69;;;8.25;100.00
6345;BME280;3205;42.666;23.264;2023-04-30T01:48:49;94054.06;;;8.30;100.00
6345;BME280;3205;42.666;23.264;2023-04-30T01:51:23;94059.34;;;8.30;100.00
6345;BME280;3205;42.666;23.264;2023-04-30T01:53:53;94062.34;;;8.40;100.00
6345;BME280;3205;42.666;23.264;2023-04-30T01:56:27;94059.94;;;8.47;100.00
6345;BME280;3205;42.666;23.264;2023-04-30T01:58:55;94050.03;;;8.44;100.00
6345;BME280;3205;42.666;23.264;2023-04-30T02:01:26;94053.47;;;8.57;100.00
6345;BME280;3205;42.666;23.264;2023-04-30T02:03:52;94056.75;;;8.66;100.00
6345;BME280;3205;42.666;23.264;2023-04-30T02:06:18;94054.69;;;8.71;100.00
6345;BME280;3205;42.666;23.264;2023-04-30T02:08:45;94056.44;;;8.67;100.00
6345;BME280;3205;42.666;23.264;2023-04-30T02:11:11;94065.97;;;8.72;100.00
6345;BME280;3205;42.666;23.264;2023-04-30T02:13:37;94062.16;;;8.69;100.00
6345;BME280;3205;42.666;23.264;2023-04-30T02:16:05;94059.84;;;8.68;100.00
6345;BME280;3205;42.666;23.264;2023-04-30T02:18:31;94058.97;;;8.64;100.00
6345;BME280;3205;42.666;23.264;2023-04-30T02:20:57;94058.06;;;8.60;100.00
6345;BME280;3205;42.666;23.264;2023-04-30T02:23:23;94055.53;;;8.51;100.00
6345;BME280;3205;42.666;23.264;2023-04-30T02:25:49;94051.13;;;8.43;100.00
6345;BME280;3205;42.666;23.264;2023-04-30T02:28:15;94052.03;;;8.47;100.00
6345;BME280;3205;42.666;23.264;2023-04-30T02:30:42;94046.75;;;8.47;100.00
6345;BME280;3205;42.666;23.264;2023-04-30T02:33:08;94044.78;;;8.56;100.00
6345;BME280;3205;42.666;23.264;2023-04-30T02:35:36;94052.81;;;8.60;100.00
6345;BME280;3205;42.666;23.264;2023-04-30T02:38:04;94049.53;;;8.75;100.00
6345;BME280;3205;42.666;23.264;2023-04-30T02:40:30;94049.75;;;8.82;100.00
6345;BME280;3205;42.666;23.264;2023-04-30T02:42:56;94052.84;;;8.95;100.00
6345;BME280;3205;42.666;23.264;2023-04-30T02:45:23;94050.41;;;9.02;100.00
6345;BME280;3205;42.666;23.264;2023-04-30T02:47:49;94058.31;;;9.14;100.00
6345;BME280;3205;42.666;23.264;2023-04-30T02:50:16;94054.03;;;9.22;100.00
6345;BME280;3205;42.666;23.264;2023-04-30T02:52:44;94056.44;;;9.27;100.00
6345;BME280;3205;42.666;23.264;2023-04-30T02:55:11;94064.56;;;9.34;100.00
6345;BME280;3205;42.666;23.264;2023-04-30T02:57:37;94058.31;;;9.38;100.00
6345;BME280;3205;42.666;23.264;2023-04-30T03:00:04;94060.81;;;9.47;100.00
6345;BME280;3205;42.666;23.264;2023-04-30T03:02:30;94068.72;;;9.47;100.00
6345;BME280;3205;42.666;23.264;2023-04-30T03:04:56;94069.28;;;9.52;100.00
6345;BME280;3205;42.666;23.264;2023-04-30T03:07:23;94062.22;;;9.56;100.00
6345;BME280;3205;42.666;23.264;2023-04-30T03:09:49;94067.69;;;9.63;100.00
6345;BME280;3205;42.666;23.264;2023-04-30T03:12:15;94061.31;;;9.64;100.00
6345;BME280;3205;42.666;23.264;2023-04-30T03:14:41;94067.47;;;9.68;100.00
6345;BME280;3205;42.666;23.264;2023-04-30T03:17:07;94073.19;;;9.70;100.00
6345;BME280;3205;42.666;23.264;2023-04-30T03:19:33;94073.63;;;9.72;100.00
6345;BME280;3205;42.666;23.264;2023-04-30T03:21:59;94075.81;;;9.70;100.00
6345;BME280;3205;42.666;23.264;2023-04-30T03:24:26;94077.56;;;9.78;100.00
6345;BME280;3205;42.666;23.264;2023-04-30T03:26:52;94075.28;;;9.76;100.00
6345;BME280;3205;42.666;23.264;2023-04-30T03:29:18;94073.72;;;9.75;100.00
6345;BME280;3205;42.666;23.264;2023-04-30T03:31:45;94072.19;;;9.74;100.00
6345;BME280;3205;42.666;23.264;2023-04-30T03:34:11;94074.59;;;9.79;100.00
6345;BME280;3205;42.666;23.264;2023-04-30T03:36:37;94083.59;;;9.78;100.00
6345;BME280;3205;42.666;23.264;2023-04-30T03:39:03;94076.44;;;9.91;100.00
6345;BME280;3205;42.666;23.264;2023-04-30T03:41:30;94086.97;;;9.91;100.00
6345;BME280;3205;42.666;23.264;2023-04-30T03:43:56;94089.06;;;9.97;100.00
6345;BME280;3205;42.666;23.264;2023-04-30T03:46:22;94095.22;;;10.01;100.00
6345;BME280;3205;42.666;23.264;2023-04-30T03:48:48;94099.31;;;9.99;100.00
6345;BME280;3205;42.666;23.264;2023-04-30T03:51:20;94097.97;;;10.05;100.00
6345;BME280;3205;42.666;23.264;2023-04-30T03:53:47;94102.16;;;10.06;100.00
6345;BME280;3205;42.666;23.264;2023-04-30T03:56:13;94103.91;;;10.14;100.00
6345;BME280;3205;42.666;23.264;2023-04-30T03:58:40;94106.78;;;10.24;100.00
6345;BME280;3205;42.666;23.264;2023-04-30T04:01:06;94104.50;;;10.23;100.00
6345;BME280;3205;42.666;23.264;2023-04-30T04:03:33;94105.47;;;10.30;100.00
6345;BME280;3205;42.666;23.264;2023-04-30T04:05:59;94111.78;;;10.26;100.00
6345;BME280;3205;42.666;23.264;2023-04-30T04:08:25;94112.88;;;10.25;100.00
6345;BME280;3205;42.666;23.264;2023-04-30T04:10:51;94119.25;;;10.24;100.00
6345;BME280;3205;42.666;23.264;2023-04-30T04:13:18;94111.16;;;10.32;100.00
6345;BME280;3205;42.666;23.264;2023-04-30T04:15:45;94116.75;;;10.42;100.00
6345;BME280;3205;42.666;23.264;2023-04-30T04:18:11;94119.25;;;10.51;100.00
6345;BME280;3205;42.666;23.264;2023-04-30T04:20:37;94112.81;;;10.79;100.00
6345;BME280;3205;42.666;23.264;2023-04-30T04:23:03;94123.59;;;11.02;100.00
6345;BME280;3205;42.666;23.264;2023-04-30T04:25:29;94119.56;;;11.23;100.00
6345;BME280;3205;42.666;23.264;2023-04-30T04:27:55;94127.44;;;11.35;100.00
6345;BME280;3205;42.666;23.264;2023-04-30T04:30:22;94131.28;;;11.53;100.00
6345;BME280;3205;42.666;23.264;2023-04-30T04:32:48;94130.50;;;11.68;100.00
6345;BME280;3205;42.666;23.264;2023-04-30T04:35:18;94138.94;;;11.73;100.00
6345;BME280;3205;42.666;23.264;2023-04-30T04:37:45;94141.44;;;11.66;100.00
6345;BME280;3205;42.666;23.264;2023-04-30T04:40:11;94147.63;;;11.74;100.00
6345;BME280;3205;42.666;23.264;2023-04-30T04:42:37;94149.19;;;11.75;100.00
6345;BME280;3205;42.666;23.264;2023-04-30T04:45:05;94149.34;;;11.82;100.00
6345;BME280;3205;42.666;23.264;2023-04-30T04:47:31;94142.78;;;11.76;100.00
6345;BME280;3205;42.666;23.264;2023-04-30T04:49:59;94154.81;;;11.73;100.00
6345;BME280;3205;42.666;23.264;2023-04-30T04:52:25;94156.00;;;11.76;100.00
6345;BME280;3205;42.666;23.264;2023-04-30T04:54:51;94154.13;;;11.76;100.00
6345;BME280;3205;42.666;23.264;2023-04-30T04:57:17;94150.38;;;11.77;100.00
6345;BME280;3205;42.666;23.264;2023-04-30T04:59:43;94153.13;;;11.65;100.00
6345;BME280;3205;42.666;23.264;2023-04-30T05:02:09;94150.81;;;11.64;100.00
6345;BME280;3205;42.666;23.264;2023-04-30T05:04:35;94150.72;;;11.76;100.00
6345;BME280;3205;42.666;23.264;2023-04-30T05:07:02;94156.78;;;11.76;100.00
6345;BME280;3205;42.666;23.264;2023-04-30T05:09:28;94146.94;;;11.77;100.00
6345;BME280;3205;42.666;23.264;2023-04-30T05:11:54;94151.56;;;11.80;100.00
6345;BME280;3205;42.666;23.264;2023-04-30T05:14:20;94151.28;;;11.84;100.00
6345;BME280;3205;42.666;23.264;2023-04-30T05:16:47;94160.69;;;11.82;100.00
6345;BME280;3205;42.666;23.264;2023-04-30T05:19:13;94157.59;;;11.80;100.00
6345;BME280;3205;42.666;23.264;2023-04-30T05:21:39;94159.56;;;11.83;100.00
6345;BME280;3205;42.666;23.264;2023-04-30T05:24:06;94160.16;;;11.92;100.00
6345;BME280;3205;42.666;23.264;2023-04-30T05:26:32;94157.84;;;11.90;100.00
6345;BME280;3205;42.666;23.264;2023-04-30T05:28:58;94162.09;;;12.10;100.00
6345;BME280;3205;42.666;23.264;2023-04-30T05:31:24;94164.19;;;12.20;100.00
6345;BME280;3205;42.666;23.264;2023-04-30T05:33:50;94161.59;;;12.24;100.00
6345;BME280;3205;42.666;23.264;2023-04-30T05:36:16;94160.84;;;12.23;100.00
6345;BME280;3205;42.666;23.264;2023-04-30T05:38:42;94160.34;;;12.37;100.00
6345;BME280;3205;42.666;23.264;2023-04-30T05:41:10;94164.91;;;12.55;100.00
6345;BME280;3205;42.666;23.264;2023-04-30T05:43:36;94161.75;;;12.68;100.00
6345;BME280;3205;42.666;23.264;2023-04-30T05:46:02;94172.91;;;12.77;100.00
6345;BME280;3205;42.666;23.264;2023-04-30T05:48:29;94170.03;;;12.86;100.00
6345;BME280;3205;42.666;23.264;2023-04-30T05:50:55;94169.06;;;12.94;100.00
6345;BME280;3205;42.666;23.264;2023-04-30T05:53:21;94174.16;;;13.02;100.00
6345;BME280;3205;42.666;23.264;2023-04-30T05:55:47;94175.88;;;13.14;100.00
6345;BME280;3205;42.666;23.264;2023-04-30T05:58:14;94171.25;;;13.30;100.00
6345;BME280;3205;42.666;23.264;2023-04-30T06:00:40;94179.03;;;13.41;100.00
6345;BME280;3205;42.666;23.264;2023-04-30T06:03:06;94187.94;;;13.52;100.00
6345;BME280;3205;42.666;23.264;2023-04-30T06:05:32;94179.00;;;13.64;100.00
6345;BME280;3205;42.666;23.264;2023-04-30T06:07:58;94186.47;;;13.55;100.00
6345;BME280;3205;42.666;23.264;2023-04-30T06:10:25;94189.53;;;13.79;100.00
6345;BME280;3205;42.666;23.264;2023-04-30T06:12:51;94192.50;;;14.00;100.00
6345;BME280;3205;42.666;23.264;2023-04-30T06:15:18;94199.88;;;14.10;100.00
6345;BME280;3205;42.666;23.264;2023-04-30T06:17:44;94201.34;;;14.33;100.00
6345;BME280;3205;42.666;23.264;2023-04-30T06:20:11;94191.88;;;14.65;100.00
6345;BME280;3205;42.666;23.264;2023-04-30T06:22:38;94194.81;;;14.89;100.00
6345;BME280;3205;42.666;23.264;2023-04-30T06:25:06;94192.47;;;15.17;100.00
6345;BME280;3205;42.666;23.264;2023-04-30T06:27:32;94198.16;;;15.49;100.00
6345;BME280;3205;42.666;23.264;2023-04-30T06:29:59;94199.97;;;15.81;100.00
6345;BME280;3205;42.666;23.264;2023-04-30T06:32:26;94202.00;;;16.01;100.00
6345;BME280;3205;42.666;23.264;2023-04-30T06:34:52;94211.38;;;16.28;100.00
6345;BME280;3205;42.666;23.264;2023-04-30T06:37:18;94208.22;;;16.73;100.00
6345;BME280;3205;42.666;23.264;2023-04-30T06:39:44;94210.38;;;18.77;100.00
6345;BME280;3205;42.666;23.264;2023-04-30T06:42:10;94211.47;;;21.93;78.29
6345;BME280;3205;42.666;23.264;2023-04-30T06:44:37;94206.41;;;25.07;56.82
6345;BME280;3205;42.666;23.264;2023-04-30T06:47:03;94209.38;;;27.54;45.73
6345;BME280;3205;42.666;23.264;2023-04-30T06:49:29;94207.44;;;29.38;40.85
6345;BME280;3205;42.666;23.264;2023-04-30T06:51:55;94216.50;;;29.53;37.88
6345;BME280;3205;42.666;23.264;2023-04-30T06:54:23;94212.56;;;28.91;39.29
6345;BME280;3205;42.666;23.264;2023-04-30T06:56:51;94216.72;;;28.74;40.41
6345;BME280;3205;42.666;23.264;2023-04-30T06:59:17;94216.31;;;26.44;42.19
6345;BME280;3205;42.666;23.264;2023-04-30T07:01:43;94217.38;;;24.43;47.18
6345;BME280;3205;42.666;23.264;2023-04-30T07:04:09;94209.41;;;24.20;49.80
6345;BME280;3205;42.666;23.264;2023-04-30T07:06:36;94215.28;;;23.64;51.08
6345;BME280;3205;42.666;23.264;2023-04-30T07:09:02;94218.25;;;22.92;55.97
6345;BME280;3205;42.666;23.264;2023-04-30T07:11:28;94219.53;;;22.65;59.57
6345;BME280;3205;42.666;23.264;2023-04-30T07:13:55;94212.53;;;22.22;60.79
6345;BME280;3205;42.666;23.264;2023-04-30T07:16:24;94215.78;;;21.87;65.54
6345;BME280;3205;42.666;23.264;2023-04-30T07:18:50;94215.44;;;21.55;65.83
6345;BME280;3205;42.666;23.264;2023-04-30T07:21:16;94218.81;;;20.99;68.74
6345;BME280;3205;42.666;23.264;2023-04-30T07:23:43;94208.88;;;20.56;73.14
6345;BME280;3205;42.666;23.264;2023-04-30T07:26:09;94207.28;;;20.22;77.38
6345;BME280;3205;42.666;23.264;2023-04-30T07:28:35;94197.47;;;20.02;81.46
6345;BME280;3205;42.666;23.264;2023-04-30T07:31:02;94203.72;;;19.85;84.14
6345;BME280;3205;42.666;23.264;2023-04-30T07:33:28;94214.28;;;19.48;77.96
6345;BME280;3205;42.666;23.264;2023-04-30T07:35:54;94214.84;;;19.12;87.16
6345;BME280;3205;42.666;23.264;2023-04-30T07:38:22;94215.34;;;18.75;90.75
6345;BME280;3205;42.666;23.264;2023-04-30T07:40:50;94223.44;;;18.51;94.95
6345;BME280;3205;42.666;23.264;2023-04-30T07:43:16;94217.72;;;18.35;96.96
6345;BME280;3205;42.666;23.264;2023-04-30T07:45:42;94221.91;;;18.36;100.00
6345;BME280;3205;42.666;23.264;2023-04-30T07:48:08;94227.25;;;18.57;99.63
6345;BME280;3205;42.666;23.264;2023-04-30T07:50:34;94221.06;;;18.88;97.17
6345;BME280;3205;42.666;23.264;2023-04-30T07:53:01;94226.38;;;19.09;95.14
6345;BME280;3205;42.666;23.264;2023-04-30T07:55:27;94220.81;;;19.47;93.26
6345;BME280;3205;42.666;23.264;2023-04-30T07:57:54;94222.66;;;19.60;91.84
6345;BME280;3205;42.666;23.264;2023-04-30T08:00:20;94220.53;;;19.89;89.27
6345;BME280;3205;42.666;23.264;2023-04-30T08:02:46;94218.13;;;20.12;81.82
6345;BME280;3205;42.666;23.264;2023-04-30T08:05:14;94219.56;;;20.23;82.48
6345;BME280;3205;42.666;23.264;2023-04-30T08:07:40;94220.06;;;20.04;81.33
6345;BME280;3205;42.666;23.264;2023-04-30T08:10:07;94225.16;;;19.88;78.25
6345;BME280;3205;42.666;23.264;2023-04-30T08:12:35;94232.53;;;19.70;81.54
6345;BME280;3205;42.666;23.264;2023-04-30T08:15:03;94234.53;;;19.59;81.48
6345;BME280;3205;42.666;23.264;2023-04-30T08:17:29;94232.97;;;19.65;81.74
6345;BME280;3205;42.666;23.264;2023-04-30T08:19:56;94234.91;;;19.61;82.95
6345;BME280;3205;42.666;23.264;2023-04-30T08:22:23;94234.53;;;19.59;81.04
6345;BME280;3205;42.666;23.264;2023-04-30T08:24:49;94233.00;;;19.58;83.17
6345;BME280;3205;42.666;23.264;2023-04-30T08:27:15;94231.03;;;19.69;84.64
6345;BME280;3205;42.666;23.264;2023-04-30T08:29:41;94238.91;;;19.97;81.94
6345;BME280;3205;42.666;23.264;2023-04-30T08:32:08;94224.56;;;20.21;77.92
6345;BME280;3205;42.666;23.264;2023-04-30T08:34:34;94240.63;;;20.68;74.12
6345;BME280;3205;42.666;23.264;2023-04-30T08:37:00;94226.13;;;21.32;68.92
6345;BME280;3205;42.666;23.264;2023-04-30T08:39:26;94230.03;;;22.37;62.40
6345;BME280;3205;42.666;23.264;2023-04-30T08:41:54;94230.38;;;23.97;56.56
6345;BME280;3205;42.666;23.264;2023-04-30T08:44:21;94231.84;;;25.25;49.44
6345;BME280;3205;42.666;23.264;2023-04-30T08:46:48;94227.69;;;25.61;46.31
6345;BME280;3205;42.666;23.264;2023-04-30T08:49:18;94228.44;;;26.27;43.75
6345;BME280;3205;42.666;23.264;2023-04-30T08:51:45;94231.81;;;27.45;41.33
6345;BME280;3205;42.666;23.264;2023-04-30T08:54:12;94217.94;;;28.73;39.64
6345;BME280;3205;42.666;23.264;2023-04-30T08:56:38;94221.97;;;31.61;34.99
6345;BME280;3205;42.666;23.264;2023-04-30T08:59:05;94225.81;;;33.49;31.95
6345;BME280;3205;42.666;23.264;2023-04-30T09:01:33;94220.06;;;33.67;30.33
6345;BME280;3205;42.666;23.264;2023-04-30T09:03:59;94220.69;;;34.33;29.54
6345;BME280;3205;42.666;23.264;2023-04-30T09:06:26;94210.94;;;35.04;28.48
6345;BME280;3205;42.666;23.264;2023-04-30T09:08:52;94221.28;;;35.95;27.76
6345;BME280;3205;42.666;23.264;2023-04-30T09:11:20;94217.81;;;36.43;27.25
6345;BME280;3205;42.666;23.264;2023-04-30T09:13:47;94210.53;;;36.68;26.91
6345;BME280;3205;42.666;23.264;2023-04-30T09:16:14;94191.94;;;37.63;26.38
6345;BME280;3205;42.666;23.264;2023-04-30T09:18:40;94190.56;;;38.15;24.92
6345;BME280;3205;42.666;23.264;2023-04-30T09:21:06;94195.00;;;39.12;25.14
6345;BME280;3205;42.666;23.264;2023-04-30T09:23:34;94198.34;;;39.65;24.60
6345;BME280;3205;42.666;23.264;2023-04-30T09:26:00;94191.63;;;39.19;23.65
6345;BME280;3205;42.666;23.264;2023-04-30T09:28:26;94186.06;;;38.76;24.22
6345;BME280;3205;42.666;23.264;2023-04-30T09:30:55;94180.66;;;39.32;24.32
6345;BME280;3205;42.666;23.264;2023-04-30T09:33:21;94181.19;;;37.49;24.54
6345;BME280;3205;42.666;23.264;2023-04-30T09:35:47;94168.00;;;33.98;27.40
6345;BME280;3205;42.666;23.264;2023-04-30T09:38:27;94169.84;;;33.56;27.61
6345;BME280;3205;42.666;23.264;2023-04-30T09:40:56;94165.97;;;33.22;28.23
6345;BME280;3205;42.666;23.264;2023-04-30T09:43:23;94165.97;;;33.98;27.82
6345;BME280;3205;42.666;23.264;2023-04-30T09:45:50;94160.31;;;35.27;26.75
6345;BME280;3205;42.666;23.264;2023-04-30T09:48:17;94163.25;;;36.04;26.04
6345;BME280;3205;42.666;23.264;2023-04-30T09:50:45;94156.56;;;35.36;26.43
6345;BME280;3205;42.666;23.264;2023-04-30T09:53:13;94160.44;;;30.99;29.37
6345;BME280;3205;42.666;23.264;2023-04-30T09:55:42;94159.28;;;28.72;32.20
6345;BME280;3205;42.666;23.264;2023-04-30T09:58:10;94159.00;;;27.22;35.16
6345;BME280;3205;42.666;23.264;2023-04-30T10:00:37;94155.53;;;27.52;35.34
6345;BME280;3205;42.666;23.264;2023-04-30T10:03:05;94147.47;;;27.18;36.37
6345;BME280;3205;42.666;23.264;2023-04-30T10:05:35;94146.41;;;26.95;36.18
6345;BME280;3205;42.666;23.264;2023-04-30T10:08:02;94154.19;;;26.37;37.35
6345;BME280;3205;42.666;23.264;2023-04-30T10:10:30;94155.78;;;25.48;38.26
6345;BME280;3205;42.666;23.264;2023-04-30T10:13:00;94142.66;;;25.22;38.91
6345;BME280;3205;42.666;23.264;2023-04-30T10:15:33;94152.28;;;25.23;40.05
6345;BME280;3205;42.666;23.264;2023-04-30T10:18:04;94152.47;;;24.59;40.18
6345;BME280;3205;42.666;23.264;2023-04-30T10:20:34;94157.72;;;23.87;41.26
6345;BME280;3205;42.666;23.264;2023-04-30T10:23:01;94180.59;;;23.27;42.80
6345;BME280;3205;42.666;23.264;2023-04-30T10:25:28;94172.91;;;22.22;47.29
6345;BME280;3205;42.666;23.264;2023-04-30T10:27:54;94192.19;;;20.75;59.42
6345;BME280;3205;42.666;23.264;2023-04-30T10:30:21;94194.59;;;19.75;86.09
6345;BME280;3205;42.666;23.264;2023-04-30T10:32:54;94208.41;;;18.92;100.00
6345;BME280;3205;42.666;23.264;2023-04-30T10:35:25;94204.72;;;18.09;100.00
6345;BME280;3205;42.666;23.264;2023-04-30T10:37:59;94198.19;;;17.69;100.00
6345;BME280;3205;42.666;23.264;2023-04-30T10:40:34;94201.25;;;17.57;100.00
6345;BME280;3205;42.666;23.264;2023-04-30T10:43:01;94189.06;;;18.01;100.00
6345;BME280;3205;42.666;23.264;2023-04-30T10:45:33;94188.13;;;18.91;100.00
6345;BME280;3205;42.666;23.264;2023-04-30T10:48:02;94176.59;;;19.72;100.00
6345;BME280;3205;42.666;23.264;2023-04-30T10:50:28;94171.38;;;20.46;100.00
6345;BME280;3205;42.666;23.264;2023-04-30T10:53:01;94170.25;;;20.84;100.00
6345;BME280;3205;42.666;23.264;2023-04-30T10:55:29;94167.22;;;21.11;98.94
6345;BME280;3205;42.666;23.264;2023-04-30T10:57:57;94172.84;;;21.20;86.59
6345;BME280;3205;42.666;23.264;2023-04-30T11:00:25;94170.63;;;21.45;83.96
6345;BME280;3205;42.666;23.264;2023-04-30T11:02:55;94167.72;;;21.63;83.87
6345;BME280;3205;42.666;23.264;2023-04-30T11:05:33;94164.66;;;21.87;73.58
6345;BME280;3205;42.666;23.264;2023-04-30T11:07:59;94164.41;;;22.01;68.23
6345;BME280;3205;42.666;23.264;2023-04-30T11:10:27;94164.94;;;22.15;65.61
6345;BME280;3205;42.666;23.264;2023-04-30T11:12:56;94161.13;;;22.58;66.84
6345;BME280;3205;42.666;23.264;2023-04-30T11:21:07;94157.66;;;23.55;55.65
6345;BME280;3205;42.666;23.264;2023-04-30T11:23:33;94158.22;;;22.92;55.49
6345;BME280;3205;42.666;23.264;2023-04-30T11:26:00;94156.25;;;22.31;55.94
6345;BME280;3205;42.666;23.264;2023-04-30T11:28:27;94161.28;;;22.06;54.86
6345;BME280;3205;42.666;23.264;2023-04-30T11:30:55;94141.88;;;22.14;63.15
